createdAt,value
2023-03-19T00:02:17.657Z,22.13
2023-03-19T00:04:46.699Z,21.37
2023-03-19T00:07:15.787Z,21.50
2023-03-19T00:09:44.046Z,22.40
2023-03-19T00:12:13.103Z,21.30
2023-03-19T00:14:41.277Z,19.33
2023-03-19T00:17:11.651Z,20.70
2023-03-19T00:19:39.756Z,20.47
2023-03-19T00:22:08.538Z,20.30
2023-03-19T00:24:36.605Z,21.27
2023-03-19T00:27:04.783Z,20.77
2023-03-19T00:29:32.961Z,20.27
2023-03-19T00:32:01.241Z,20.67
2023-03-19T00:34:30.670Z,19.67
2023-03-19T00:36:58.823Z,20.80
2023-03-19T00:39:26.907Z,23.00
2023-03-19T00:41:54.936Z,25.53
2023-03-19T00:44:22.988Z,24.50
2023-03-19T00:46:51.697Z,23.03
2023-03-19T00:49:19.748Z,25.30
2023-03-19T00:51:49.146Z,24.87
2023-03-19T00:54:17.920Z,24.87
2023-03-19T00:56:45.965Z,23.73
2023-03-19T00:59:13.994Z,24.03
2023-03-19T01:01:42.113Z,23.10
2023-03-19T01:04:11.171Z,22.00
2023-03-19T01:06:39.294Z,23.07
2023-03-19T01:09:08.715Z,21.83
2023-03-19T01:11:36.873Z,23.63
2023-03-19T01:14:04.958Z,23.10
2023-03-19T01:16:34.352Z,23.17
2023-03-19T01:19:02.506Z,23.97
2023-03-19T01:21:31.159Z,23.30
2023-03-19T01:23:59.669Z,21.83
2023-03-19T01:26:29.075Z,22.40
2023-03-19T01:28:58.737Z,22.53
2023-03-19T01:31:27.152Z,22.07
2023-03-19T01:33:55.807Z,22.50
2023-03-19T01:36:23.889Z,21.57
2023-03-19T01:38:51.991Z,23.37
2023-03-19T01:41:20.114Z,22.90
2023-03-19T01:43:49.514Z,22.90
2023-03-19T01:46:25.924Z,22.80
2023-03-19T01:48:57.373Z,24.67
2023-03-19T01:51:28.782Z,22.90
2023-03-19T01:54:00.886Z,24.23
2023-03-19T01:56:33.287Z,25.30
2023-03-19T01:59:07.808Z,23.63
2023-03-19T02:01:39.240Z,23.10
2023-03-19T02:04:08.294Z,24.70
2023-03-19T02:06:37.767Z,25.63
2023-03-19T02:09:06.265Z,23.80
2023-03-19T02:11:34.786Z,23.20
2023-03-19T02:14:04.646Z,24.53
2023-03-19T02:16:32.781Z,25.73
2023-03-19T02:19:01.469Z,26.43
2023-03-19T02:21:30.023Z,25.93
2023-03-19T02:24:04.708Z,25.43
2023-03-19T02:26:34.555Z,25.27
2023-03-19T02:29:04.118Z,24.47
2023-03-19T02:31:32.495Z,24.40
2023-03-19T02:34:02.573Z,25.40
2023-03-19T02:36:34.810Z,24.07
2023-03-19T02:39:05.445Z,25.10
2023-03-19T02:41:38.518Z,26.13
2023-03-19T02:44:07.451Z,25.97
2023-03-19T02:46:36.735Z,27.03
2023-03-19T02:49:05.381Z,24.93
2023-03-19T02:51:33.467Z,23.87
2023-03-19T02:54:01.473Z,25.83
2023-03-19T02:56:29.608Z,27.17
2023-03-19T02:58:59.049Z,26.83
2023-03-19T03:01:27.144Z,24.37
2023-03-19T03:03:55.514Z,26.37
2023-03-19T03:06:23.535Z,28.40
2023-03-19T03:08:52.136Z,28.53
2023-03-19T03:11:20.212Z,27.90
2023-03-19T03:13:48.229Z,28.13
2023-03-19T03:16:17.666Z,28.00
2023-03-19T03:18:45.816Z,28.83
2023-03-19T03:21:13.880Z,28.67
2023-03-19T03:23:42.088Z,27.57
2023-03-19T03:26:10.129Z,25.27
2023-03-19T03:28:38.226Z,28.40
2023-03-19T03:31:06.438Z,27.60
2023-03-19T03:33:36.365Z,25.63
2023-03-19T03:36:04.633Z,28.63
2023-03-19T03:38:32.927Z,29.77
2023-03-19T03:41:00.943Z,29.70
2023-03-19T03:43:29.050Z,27.83
2023-03-19T03:45:57.600Z,29.23
2023-03-19T03:48:26.032Z,31.40
2023-03-19T03:50:55.537Z,28.70
2023-03-19T03:53:23.558Z,28.10
2023-03-19T03:55:51.634Z,27.33
2023-03-19T03:58:19.883Z,28.97
2023-03-19T04:00:48.443Z,28.43
2023-03-19T04:03:17.475Z,28.83
2023-03-19T04:05:45.831Z,28.10
2023-03-19T04:08:15.903Z,28.17
2023-03-19T04:10:44.767Z,31.50
2023-03-19T04:13:13.791Z,29.10
2023-03-19T04:15:43.509Z,27.77
2023-03-19T04:18:11.831Z,29.70
2023-03-19T04:20:41.182Z,28.27
2023-03-19T04:23:09.202Z,27.83
2023-03-19T04:25:41.177Z,28.57
2023-03-19T04:28:09.484Z,29.17
2023-03-19T04:30:37.984Z,26.80
2023-03-19T04:33:06.980Z,29.80
2023-03-19T04:35:35.780Z,29.60
2023-03-19T04:38:04.103Z,30.53
2023-03-19T04:40:32.326Z,29.10
2023-03-19T04:43:01.836Z,31.27
2023-03-19T04:45:29.929Z,28.53
2023-03-19T04:47:58.215Z,31.13
2023-03-19T04:50:26.239Z,28.37
2023-03-19T04:52:54.657Z,26.30
2023-03-19T04:55:23.600Z,29.80
2023-03-19T04:57:52.088Z,29.40
2023-03-19T05:00:22.232Z,28.17
2023-03-19T05:02:50.265Z,29.03
2023-03-19T05:05:18.845Z,29.03
2023-03-19T05:07:47.441Z,30.00
2023-03-19T05:10:15.557Z,29.10
2023-03-19T05:12:43.626Z,29.27
2023-03-19T05:15:12.626Z,30.67
2023-03-19T05:17:42.852Z,30.37
2023-03-19T05:20:12.846Z,31.07
2023-03-19T05:22:41.437Z,31.00
2023-03-19T05:25:09.815Z,31.40
2023-03-19T05:27:37.884Z,27.97
2023-03-19T05:30:07.236Z,28.70
2023-03-19T05:32:35.496Z,32.30
2023-03-19T05:35:05.629Z,28.93
2023-03-19T05:37:33.923Z,29.30
2023-03-19T05:40:02.033Z,31.30
2023-03-19T05:42:30.054Z,192.97
2023-03-19T05:44:58.134Z,48.57
2023-03-19T05:47:27.069Z,93.53
2023-03-19T05:49:55.100Z,35.97
2023-03-19T05:52:24.703Z,48.57
2023-03-19T05:54:52.790Z,35.73
2023-03-19T05:57:21.296Z,33.77
2023-03-19T05:59:49.326Z,33.03
2023-03-19T06:02:17.511Z,32.80
2023-03-19T06:04:45.953Z,31.50
2023-03-19T06:07:14.006Z,32.27
2023-03-19T06:09:43.551Z,30.33
2023-03-19T06:12:11.942Z,32.10
2023-03-19T06:14:39.976Z,31.20
2023-03-19T06:17:09.311Z,31.77
2023-03-19T06:19:37.384Z,31.30
2023-03-19T06:22:05.447Z,29.90
2023-03-19T06:24:33.815Z,30.23
2023-03-19T06:27:03.235Z,31.83
2023-03-19T06:29:31.267Z,31.90
2023-03-19T06:31:59.339Z,33.27
2023-03-19T06:34:27.656Z,31.40
2023-03-19T06:36:55.718Z,31.13
2023-03-19T06:39:23.933Z,31.40
2023-03-19T06:41:52.340Z,32.13
2023-03-19T06:44:21.758Z,30.60
2023-03-19T06:46:49.787Z,30.67
2023-03-19T06:49:18.076Z,31.17
2023-03-19T06:51:46.193Z,26.50
2023-03-19T06:54:14.242Z,26.97
2023-03-19T06:56:42.295Z,25.90
2023-03-19T06:59:13.107Z,27.67
2023-03-19T07:01:43.204Z,25.03
2023-03-19T07:04:11.961Z,26.30
2023-03-19T07:06:40.059Z,25.30
2023-03-19T07:09:08.260Z,25.40
2023-03-19T07:11:36.825Z,23.47
2023-03-19T07:14:05.226Z,30.70
2023-03-19T07:16:33.467Z,32.50
2023-03-19T07:19:02.913Z,26.97
2023-03-19T07:21:31.034Z,21.77
2023-03-19T07:23:59.069Z,20.93
2023-03-19T07:26:27.705Z,22.93
2023-03-19T07:28:55.746Z,22.90
2023-03-19T07:31:23.865Z,21.33
2023-03-19T07:33:51.915Z,23.20
2023-03-19T07:36:21.908Z,23.70
2023-03-19T07:38:49.979Z,21.63
2023-03-19T07:41:18.108Z,21.57
2023-03-19T07:43:46.155Z,23.17
2023-03-19T07:46:14.439Z,24.03
2023-03-19T07:48:42.551Z,24.27
2023-03-19T07:51:10.563Z,25.90
2023-03-19T07:53:39.967Z,28.07
2023-03-19T07:56:08.737Z,26.50
2023-03-19T07:58:36.816Z,26.07
2023-03-19T08:01:05.307Z,27.10
2023-03-19T08:03:33.758Z,27.87
2023-03-19T08:06:02.471Z,27.80
2023-03-19T08:08:30.584Z,29.30
2023-03-19T08:10:59.951Z,32.87
2023-03-19T08:13:28.297Z,27.47
2023-03-19T08:15:56.513Z,30.20
2023-03-19T08:18:24.851Z,32.70
2023-03-19T08:20:52.890Z,31.73
2023-03-19T08:23:20.944Z,30.57
2023-03-19T08:25:51.728Z,30.13
2023-03-19T08:28:21.793Z,30.20
2023-03-19T08:30:50.285Z,29.03
2023-03-19T08:33:18.545Z,35.07
2023-03-19T08:35:46.696Z,34.70
2023-03-19T08:38:14.842Z,34.70
2023-03-19T08:40:42.873Z,27.50
2023-03-19T08:43:11.010Z,32.77
2023-03-19T08:45:40.426Z,31.70
2023-03-19T08:48:08.512Z,28.70
2023-03-19T08:50:36.980Z,40.90
2023-03-19T08:53:05.031Z,29.40
2023-03-19T08:55:33.064Z,28.77
2023-03-19T08:58:01.104Z,28.70
2023-03-19T09:00:29.193Z,26.90
2023-03-19T09:02:58.614Z,36.63
2023-03-19T09:05:29.281Z,27.20
2023-03-19T09:07:57.750Z,27.67
2023-03-19T09:10:25.833Z,29.10
2023-03-19T09:12:53.923Z,27.90
2023-03-19T09:15:21.987Z,26.57
2023-03-19T09:17:50.399Z,27.60
2023-03-19T09:20:20.140Z,28.90
2023-03-19T09:22:48.239Z,28.17
2023-03-19T09:25:16.473Z,29.97
2023-03-19T09:27:44.513Z,27.77
2023-03-19T09:30:14.057Z,25.97
2023-03-19T09:32:42.148Z,25.43
2023-03-19T09:35:11.009Z,26.90
2023-03-19T09:37:40.534Z,29.17
2023-03-19T09:40:17.389Z,29.33
2023-03-19T09:42:57.731Z,30.40
2023-03-19T09:45:28.581Z,28.60
2023-03-19T09:48:04.263Z,29.97
2023-03-19T09:50:34.731Z,30.00
2023-03-19T09:53:09.568Z,28.00
2023-03-19T09:55:44.377Z,27.47
2023-03-19T09:58:16.675Z,28.93
2023-03-19T10:00:48.157Z,30.10
2023-03-19T10:03:30.998Z,27.97
2023-03-19T10:06:09.452Z,26.13
2023-03-19T10:08:51.598Z,29.00
2023-03-19T10:11:34.306Z,29.07
2023-03-19T10:14:18.271Z,28.47
2023-03-19T10:16:50.129Z,29.40
2023-03-19T10:19:23.695Z,30.07
2023-03-19T10:21:57.086Z,30.00
2023-03-19T10:24:31.424Z,28.30
2023-03-19T10:27:02.910Z,27.77
2023-03-19T10:29:30.959Z,27.93
2023-03-19T10:32:08.557Z,29.50
2023-03-19T10:34:38.055Z,31.87
2023-03-19T10:37:08.171Z,29.70
2023-03-19T10:39:39.991Z,28.43
2023-03-19T10:42:20.030Z,30.17
2023-03-19T10:44:51.813Z,32.20
2023-03-19T10:47:22.685Z,28.63
2023-03-19T10:49:51.888Z,30.63
2023-03-19T10:52:24.092Z,28.97
2023-03-19T10:54:57.069Z,31.60
2023-03-19T10:57:28.714Z,29.73
2023-03-19T10:59:56.984Z,29.60
2023-03-19T11:02:31.112Z,28.10
2023-03-19T11:05:20.164Z,27.57
2023-03-19T11:07:51.235Z,23.93
2023-03-19T11:10:21.929Z,23.07
2023-03-19T11:12:56.352Z,23.03
2023-03-19T11:15:29.068Z,23.83
2023-03-19T11:17:59.431Z,22.97
2023-03-19T11:20:31.962Z,22.73
2023-03-19T11:23:02.799Z,21.10
2023-03-19T11:25:37.429Z,22.20
2023-03-19T11:28:09.813Z,22.10
2023-03-19T11:30:50.050Z,21.37
2023-03-19T11:33:41.878Z,22.80
2023-03-19T11:36:14.505Z,20.60
2023-03-19T11:38:54.805Z,21.53
2023-03-19T11:41:35.671Z,23.93
2023-03-19T11:44:10.638Z,26.20
2023-03-19T11:46:44.439Z,22.93
2023-03-19T11:49:43.501Z,23.13
2023-03-19T11:52:19.474Z,18.90
2023-03-19T11:55:04.239Z,20.43
2023-03-19T11:57:48.903Z,19.80
2023-03-19T12:00:29.669Z,19.00
2023-03-19T12:03:28.387Z,16.23
2023-03-19T12:06:00.293Z,17.43
2023-03-19T12:08:37.366Z,17.50
2023-03-19T12:11:17.554Z,16.13
2023-03-19T12:14:19.005Z,14.60
2023-03-19T12:17:09.729Z,15.93
2023-03-19T12:20:16.105Z,15.07
2023-03-19T12:22:59.674Z,15.53
2023-03-19T12:25:38.923Z,16.77
2023-03-19T12:28:16.261Z,15.07
2023-03-19T12:30:50.629Z,15.33
2023-03-19T12:33:34.686Z,15.83
2023-03-19T12:36:09.141Z,13.60
2023-03-19T12:38:40.704Z,13.20
2023-03-19T12:41:12.667Z,12.03
2023-03-19T12:43:50.424Z,12.83
2023-03-19T12:46:24.512Z,12.73
2023-03-19T12:48:57.511Z,13.87
2023-03-19T12:51:29.774Z,12.53
2023-03-19T12:54:01.984Z,12.30
2023-03-19T12:56:36.601Z,12.43
2023-03-19T12:59:14.969Z,11.53
2023-03-19T13:01:48.894Z,11.27
2023-03-19T13:04:22.858Z,13.23
2023-03-19T13:06:56.132Z,11.83
2023-03-19T13:09:31.498Z,12.57
2023-03-19T13:12:04.186Z,13.13
2023-03-19T13:14:39.454Z,11.63
2023-03-19T13:17:21.364Z,11.63
2023-03-19T13:19:52.733Z,9.23
2023-03-19T13:22:23.072Z,11.80
2023-03-19T13:24:53.531Z,10.73
2023-03-19T13:27:24.903Z,12.93
2023-03-19T13:30:07.432Z,12.53
2023-03-19T13:32:42.827Z,12.83
2023-03-19T13:35:30.242Z,10.83
2023-03-19T13:38:02.388Z,11.10
2023-03-19T13:40:48.034Z,11.97
2023-03-19T13:43:52.807Z,10.60
2023-03-19T13:46:39.846Z,10.13
2023-03-19T13:49:26.483Z,10.87
2023-03-19T13:52:03.193Z,10.73
2023-03-19T13:54:37.728Z,10.83
2023-03-19T13:57:08.863Z,11.50
2023-03-19T13:59:39.237Z,10.07
2023-03-19T14:02:58.962Z,10.10
2023-03-19T14:05:36.290Z,10.10
2023-03-19T14:08:18.461Z,10.80
2023-03-19T14:10:50.587Z,11.70
2023-03-19T14:13:24.251Z,10.93
2023-03-19T14:15:53.210Z,10.57
2023-03-19T14:18:25.057Z,11.43
2023-03-19T14:21:00.042Z,11.07
2023-03-19T14:23:40.927Z,10.43
2023-03-19T14:26:18.550Z,12.37
2023-03-19T14:28:55.979Z,12.00
2023-03-19T14:31:36.985Z,12.37
2023-03-19T14:34:17.906Z,13.20
2023-03-19T14:36:51.193Z,15.03
2023-03-19T14:39:23.618Z,14.57
2023-03-19T14:41:56.424Z,15.07
2023-03-19T14:44:58.702Z,14.80
2023-03-19T14:47:43.051Z,15.67
2023-03-19T14:50:36.092Z,14.00
2023-03-19T14:53:14.633Z,14.50
2023-03-19T14:55:43.992Z,15.97
2023-03-19T14:58:13.064Z,15.50
2023-03-19T15:00:46.794Z,15.70
2023-03-19T15:03:22.770Z,15.30
2023-03-19T15:05:57.677Z,14.23
2023-03-19T15:08:28.352Z,13.53
2023-03-19T15:11:08.791Z,14.80
2023-03-19T15:14:00.729Z,15.13
2023-03-19T15:16:38.336Z,15.10
2023-03-19T15:19:10.314Z,13.60
2023-03-19T15:21:38.638Z,13.50
2023-03-19T15:24:15.947Z,15.77
2023-03-19T15:26:44.626Z,13.90
2023-03-19T15:29:13.632Z,12.17
2023-03-19T15:31:51.772Z,13.90
2023-03-19T15:34:27.919Z,12.43
2023-03-19T15:37:00.206Z,13.53
2023-03-19T15:39:35.288Z,14.20
2023-03-19T15:42:05.409Z,15.43
2023-03-19T15:44:38.424Z,15.53
2023-03-19T15:47:12.479Z,14.80
2023-03-19T15:49:43.740Z,15.40
2023-03-19T15:52:14.114Z,15.47
2023-03-19T15:54:44.634Z,15.03
2023-03-19T15:57:15.078Z,16.03
2023-03-19T15:59:43.601Z,15.67
2023-03-19T16:02:20.986Z,16.23
2023-03-19T16:05:14.156Z,16.10
2023-03-19T16:07:43.187Z,16.73
2023-03-19T16:10:33.876Z,15.87
2023-03-19T16:13:04.032Z,17.33
2023-03-19T16:15:38.751Z,18.27
2023-03-19T16:18:27.685Z,18.87
2023-03-19T16:21:07.170Z,16.90
2023-03-19T16:23:37.708Z,18.23
2023-03-19T16:26:18.218Z,16.73
2023-03-19T16:28:50.174Z,17.90
2023-03-19T16:31:23.552Z,16.97
2023-03-19T16:33:53.484Z,18.07
2023-03-19T16:36:22.896Z,16.67
2023-03-19T16:38:57.376Z,19.50
2023-03-19T16:41:32.244Z,19.53
2023-03-19T16:44:18.402Z,18.20
2023-03-19T16:46:46.604Z,18.90
2023-03-19T16:49:14.643Z,18.73
2023-03-19T16:51:43.081Z,18.80
2023-03-19T16:54:13.859Z,20.30
2023-03-19T16:56:43.334Z,20.07
2023-03-19T16:59:20.753Z,21.60
2023-03-19T17:01:48.867Z,21.20
2023-03-19T17:04:17.658Z,21.10
2023-03-19T17:06:45.974Z,20.77
2023-03-19T17:09:14.138Z,20.70
2023-03-19T17:11:44.906Z,22.57
2023-03-19T17:14:18.206Z,22.63
2023-03-19T17:16:50.684Z,24.53
2023-03-19T17:19:22.054Z,23.23
2023-03-19T17:21:52.759Z,23.43
2023-03-19T17:24:24.614Z,22.53
2023-03-19T17:26:55.509Z,25.47
2023-03-19T17:29:25.428Z,24.53
2023-03-19T17:31:54.853Z,24.37
2023-03-19T17:34:25.725Z,23.37
2023-03-19T17:36:56.324Z,24.13
2023-03-19T17:39:24.945Z,25.10
2023-03-19T17:41:54.870Z,25.80
2023-03-19T17:44:23.369Z,24.27
2023-03-19T17:46:53.474Z,23.27
2023-03-19T17:49:24.076Z,25.27
2023-03-19T17:51:52.733Z,23.97
2023-03-19T17:54:21.354Z,24.80
2023-03-19T17:56:49.829Z,25.77
2023-03-19T17:59:19.568Z,27.63
2023-03-19T18:01:48.182Z,26.10
2023-03-19T18:04:19.108Z,26.80
2023-03-19T18:06:50.465Z,27.30
2023-03-19T18:09:20.934Z,27.27
2023-03-19T18:11:49.370Z,27.03
2023-03-19T18:14:19.210Z,26.87
2023-03-19T18:16:48.023Z,25.13
2023-03-19T18:19:21.322Z,24.83
2023-03-19T18:21:49.407Z,25.30
2023-03-19T18:24:17.552Z,25.43
2023-03-19T18:26:45.660Z,25.23
2023-03-19T18:29:13.807Z,25.93
2023-03-19T18:31:43.977Z,24.70
2023-03-19T18:34:14.231Z,25.50
2023-03-19T18:36:42.557Z,23.77
2023-03-19T18:39:13.863Z,23.20
2023-03-19T18:41:42.596Z,25.30
2023-03-19T18:44:12.120Z,24.33
2023-03-19T18:46:43.016Z,27.40
2023-03-19T18:49:20.877Z,27.70
2023-03-19T18:52:01.680Z,23.97
2023-03-19T18:54:31.610Z,26.00
2023-03-19T18:57:01.293Z,25.93
2023-03-19T18:59:32.616Z,27.47
2023-03-19T19:02:03.209Z,26.73
2023-03-19T19:04:31.463Z,27.43
2023-03-19T19:06:59.860Z,27.47
2023-03-19T19:09:27.907Z,27.10
2023-03-19T19:11:58.073Z,27.50
2023-03-19T19:14:26.180Z,28.90
2023-03-19T19:16:57.020Z,28.47
2023-03-19T19:19:27.815Z,30.50
2023-03-19T19:21:56.023Z,31.60
2023-03-19T19:24:24.081Z,28.83
2023-03-19T19:26:54.102Z,29.37
2023-03-19T19:29:25.562Z,30.23
2023-03-19T19:31:54.601Z,29.57
2023-03-19T19:34:23.499Z,29.47
2023-03-19T19:36:55.483Z,27.73
2023-03-19T19:39:23.517Z,30.23
2023-03-19T19:41:53.066Z,32.03
2023-03-19T19:44:23.054Z,31.07
2023-03-19T19:46:53.390Z,31.80
2023-03-19T19:49:23.205Z,30.70
2023-03-19T19:51:52.763Z,31.30
2023-03-19T19:54:21.746Z,33.20
2023-03-19T19:56:49.884Z,30.50
2023-03-19T19:59:18.093Z,31.53
2023-03-19T20:01:46.179Z,33.80
2023-03-19T20:04:15.628Z,32.10
2023-03-19T20:06:43.643Z,32.50
2023-03-19T20:09:13.112Z,35.30
2023-03-19T20:11:41.198Z,35.03
2023-03-19T20:14:14.602Z,36.77
2023-03-19T20:16:43.040Z,33.50
2023-03-19T20:19:18.758Z,38.17
2023-03-19T20:21:47.100Z,39.23
2023-03-19T20:24:16.818Z,36.50
2023-03-19T20:26:45.056Z,38.00
2023-03-19T20:29:16.597Z,36.60
2023-03-19T20:31:47.307Z,38.53
2023-03-19T20:34:28.592Z,40.43
2023-03-19T20:37:04.605Z,42.03
2023-03-19T20:39:34.004Z,43.27
2023-03-19T20:42:02.051Z,41.10
2023-03-19T20:44:30.395Z,44.33
2023-03-19T20:46:59.032Z,42.10
2023-03-19T20:49:27.049Z,43.30
2023-03-19T20:51:55.109Z,41.97
2023-03-19T20:54:23.726Z,41.57
2023-03-19T20:56:53.191Z,42.00
2023-03-19T20:59:21.220Z,45.33
2023-03-19T21:01:49.303Z,54.03
2023-03-19T21:04:20.483Z,46.90
2023-03-19T21:06:53.288Z,43.80
2023-03-19T21:09:22.588Z,43.50
2023-03-19T21:11:52.844Z,42.63
2023-03-19T21:14:23.257Z,41.80
2023-03-19T21:16:51.463Z,45.57
2023-03-19T21:19:20.018Z,45.40
2023-03-19T21:21:48.349Z,45.80
2023-03-19T21:24:18.795Z,43.30
2023-03-19T21:26:47.316Z,45.80
2023-03-19T21:29:21.842Z,45.77
2023-03-19T21:31:50.156Z,43.80
2023-03-19T21:34:18.266Z,44.70
2023-03-19T21:36:46.618Z,46.20
2023-03-19T21:39:14.663Z,44.40
2023-03-19T21:41:43.045Z,43.80
2023-03-19T21:44:14.032Z,43.37
2023-03-19T21:46:46.543Z,46.70
2023-03-19T21:49:15.207Z,46.77
2023-03-19T21:51:43.827Z,45.27
2023-03-19T21:54:11.931Z,44.07
2023-03-19T21:56:41.991Z,46.20
2023-03-19T21:59:14.744Z,45.10
2023-03-19T22:01:44.206Z,47.87
2023-03-19T22:04:12.485Z,46.90
2023-03-19T22:06:41.565Z,47.30
2023-03-19T22:09:09.729Z,48.97
2023-03-19T22:11:39.305Z,49.63
2023-03-19T22:14:13.594Z,45.87
2023-03-19T22:16:44.610Z,50.87
2023-03-19T22:19:15.084Z,48.47
2023-03-19T22:21:43.247Z,50.67
2023-03-19T22:24:11.298Z,49.70
2023-03-19T22:26:41.615Z,49.60
2023-03-19T22:29:16.736Z,50.97
2023-03-19T22:31:46.610Z,51.47
2023-03-19T22:34:16.635Z,53.40
2023-03-19T22:36:45.034Z,53.37
2023-03-19T22:39:13.670Z,54.20
2023-03-19T22:41:45.564Z,54.53
2023-03-19T22:44:20.482Z,47.70
2023-03-19T22:46:49.908Z,48.10
2023-03-19T22:49:18.839Z,48.60
2023-03-19T22:51:47.429Z,49.70
2023-03-19T22:54:15.642Z,49.07
2023-03-19T22:56:43.873Z,51.93
2023-03-19T22:59:11.942Z,50.13
2023-03-19T23:01:41.910Z,48.40
2023-03-19T23:04:20.240Z,47.93
2023-03-19T23:06:48.390Z,52.07
2023-03-19T23:09:19.268Z,50.90
2023-03-19T23:11:48.265Z,49.77
2023-03-19T23:14:28.352Z,46.87
2023-03-19T23:19:30.704Z,51.17
2023-03-19T23:21:59.255Z,47.67
2023-03-19T23:24:27.939Z,49.83
2023-03-19T23:26:57.833Z,47.30
2023-03-19T23:29:29.793Z,48.20
2023-03-19T23:31:58.889Z,49.13
2023-03-19T23:34:29.486Z,50.57
2023-03-19T23:36:58.055Z,52.13
2023-03-19T23:39:26.713Z,49.87
2023-03-19T23:41:58.867Z,49.17
2023-03-19T23:44:29.188Z,46.00
2023-03-19T23:47:01.522Z,48.83
2023-03-19T23:49:32.989Z,48.60
2023-03-19T23:52:01.974Z,50.13
2023-03-19T23:54:32.169Z,50.93
2023-03-19T23:57:04.229Z,48.50
2023-03-19T23:59:36.207Z,47.83
